sensor_id;sensor_type;location;lat;lon;timestamp;P1;durP1;ratioP1;P2;durP2;ratioP2
46675;SDS011;32412;51.478;5.694;2023-08-12T00:01:49;50.95;;;31.42;;
46675;SDS011;32412;51.478;5.694;2023-08-12T00:04:14;47.85;;;30.90;;
46675;SDS011;32412;51.478;5.694;2023-08-12T00:06:41;53.55;;;30.10;;
46675;SDS011;32412;51.478;5.694;2023-08-12T00:09:07;52.03;;;31.02;;
46675;SDS011;32412;51.478;5.694;2023-08-12T00:11:36;57.25;;;31.25;;
46675;SDS011;32412;51.478;5.694;2023-08-12T00:14:02;51.42;;;31.00;;
46675;SDS011;32412;51.478;5.694;2023-08-12T00:16:28;56.40;;;30.30;;
46675;SDS011;32412;51.478;5.694;2023-08-12T00:18:54;54.50;;;30.40;;
46675;SDS011;32412;51.478;5.694;2023-08-12T00:21:19;52.05;;;31.13;;
46675;SDS011;32412;51.478;5.694;2023-08-12T00:23:45;50.88;;;29.67;;
46675;SDS011;32412;51.478;5.694;2023-08-12T00:26:12;50.47;;;31.92;;
46675;SDS011;32412;51.478;5.694;2023-08-12T00:28:38;50.53;;;32.53;;
46675;SDS011;32412;51.478;5.694;2023-08-12T00:31:04;52.58;;;30.20;;
46675;SDS011;32412;51.478;5.694;2023-08-12T00:33:29;53.28;;;31.13;;
46675;SDS011;32412;51.478;5.694;2023-08-12T00:35:55;51.78;;;31.88;;
46675;SDS011;32412;51.478;5.694;2023-08-12T00:38:20;58.50;;;33.78;;
46675;SDS011;32412;51.478;5.694;2023-08-12T00:40:46;57.30;;;32.95;;
46675;SDS011;32412;51.478;5.694;2023-08-12T00:43:12;61.20;;;34.20;;
46675;SDS011;32412;51.478;5.694;2023-08-12T00:45:38;55.58;;;33.50;;
46675;SDS011;32412;51.478;5.694;2023-08-12T00:48:04;59.03;;;32.85;;
46675;SDS011;32412;51.478;5.694;2023-08-12T00:50:30;64.35;;;34.65;;
46675;SDS011;32412;51.478;5.694;2023-08-12T00:52:57;58.92;;;33.90;;
46675;SDS011;32412;51.478;5.694;2023-08-12T00:55:24;55.67;;;34.20;;
46675;SDS011;32412;51.478;5.694;2023-08-12T00:57:49;60.53;;;33.38;;
46675;SDS011;32412;51.478;5.694;2023-08-12T01:00:17;55.50;;;32.75;;
46675;SDS011;32412;51.478;5.694;2023-08-12T01:02:46;58.55;;;33.17;;
46675;SDS011;32412;51.478;5.694;2023-08-12T01:05:13;56.58;;;33.72;;
46675;SDS011;32412;51.478;5.694;2023-08-12T01:07:40;53.33;;;31.65;;
46675;SDS011;32412;51.478;5.694;2023-08-12T01:10:07;49.45;;;31.88;;
46675;SDS011;32412;51.478;5.694;2023-08-12T01:12:36;42.83;;;27.67;;
46675;SDS011;32412;51.478;5.694;2023-08-12T01:15:25;44.00;;;26.27;;
46675;SDS011;32412;51.478;5.694;2023-08-12T01:17:52;39.20;;;23.98;;
46675;SDS011;32412;51.478;5.694;2023-08-12T01:20:22;40.40;;;23.83;;
46675;SDS011;32412;51.478;5.694;2023-08-12T01:25:36;38.95;;;23.73;;
46675;SDS011;32412;51.478;5.694;2023-08-12T01:28:02;37.75;;;23.65;;
46675;SDS011;32412;51.478;5.694;2023-08-12T01:30:28;42.47;;;25.58;;
46675;SDS011;32412;51.478;5.694;2023-08-12T01:33:01;40.88;;;25.67;;
46675;SDS011;32412;51.478;5.694;2023-08-12T01:35:36;44.17;;;26.30;;
46675;SDS011;32412;51.478;5.694;2023-08-12T01:38:06;44.78;;;27.58;;
46675;SDS011;32412;51.478;5.694;2023-08-12T01:40:34;44.90;;;26.42;;
46675;SDS011;32412;51.478;5.694;2023-08-12T01:43:01;45.15;;;28.38;;
46675;SDS011;32412;51.478;5.694;2023-08-12T01:45:30;47.90;;;29.73;;
46675;SDS011;32412;51.478;5.694;2023-08-12T01:47:57;44.45;;;30.00;;
46675;SDS011;32412;51.478;5.694;2023-08-12T01:50:23;51.28;;;30.33;;
46675;SDS011;32412;51.478;5.694;2023-08-12T01:52:49;50.13;;;29.35;;
46675;SDS011;32412;51.478;5.694;2023-08-12T01:55:14;51.78;;;29.60;;
46675;SDS011;32412;51.478;5.694;2023-08-12T01:57:40;50.80;;;30.35;;
46675;SDS011;32412;51.478;5.694;2023-08-12T02:00:06;51.70;;;30.23;;
46675;SDS011;32412;51.478;5.694;2023-08-12T02:02:32;49.60;;;31.33;;
46675;SDS011;32412;51.478;5.694;2023-08-12T02:04:57;54.80;;;31.20;;
46675;SDS011;32412;51.478;5.694;2023-08-12T02:07:23;50.45;;;32.05;;
46675;SDS011;32412;51.478;5.694;2023-08-12T02:09:48;49.63;;;30.42;;
46675;SDS011;32412;51.478;5.694;2023-08-12T02:12:14;50.25;;;30.05;;
46675;SDS011;32412;51.478;5.694;2023-08-12T02:14:40;52.72;;;30.27;;
46675;SDS011;32412;51.478;5.694;2023-08-12T02:17:05;51.00;;;29.10;;
46675;SDS011;32412;51.478;5.694;2023-08-12T02:19:32;44.55;;;28.45;;
46675;SDS011;32412;51.478;5.694;2023-08-12T02:21:58;50.47;;;28.00;;
46675;SDS011;32412;51.478;5.694;2023-08-12T02:24:24;39.50;;;26.08;;
46675;SDS011;32412;51.478;5.694;2023-08-12T02:26:50;43.67;;;26.98;;
46675;SDS011;32412;51.478;5.694;2023-08-12T02:29:16;41.00;;;24.65;;
46675;SDS011;32412;51.478;5.694;2023-08-12T02:31:41;32.97;;;23.65;;
46675;SDS011;32412;51.478;5.694;2023-08-12T02:34:07;33.50;;;23.17;;
46675;SDS011;32412;51.478;5.694;2023-08-12T02:36:49;32.38;;;20.48;;
46675;SDS011;32412;51.478;5.694;2023-08-12T02:39:14;36.00;;;20.63;;
46675;SDS011;32412;51.478;5.694;2023-08-12T02:41:40;33.05;;;20.40;;
46675;SDS011;32412;51.478;5.694;2023-08-12T02:44:05;31.77;;;20.70;;
46675;SDS011;32412;51.478;5.694;2023-08-12T02:46:31;36.10;;;22.00;;
46675;SDS011;32412;51.478;5.694;2023-08-12T02:48:57;35.05;;;21.02;;
46675;SDS011;32412;51.478;5.694;2023-08-12T02:51:22;32.65;;;21.52;;
46675;SDS011;32412;51.478;5.694;2023-08-12T02:53:48;36.63;;;20.33;;
46675;SDS011;32412;51.478;5.694;2023-08-12T02:56:16;29.10;;;19.40;;
46675;SDS011;32412;51.478;5.694;2023-08-12T02:58:42;28.73;;;19.40;;
46675;SDS011;32412;51.478;5.694;2023-08-12T03:01:07;33.20;;;19.25;;
46675;SDS011;32412;51.478;5.694;2023-08-12T03:03:33;31.73;;;19.90;;
46675;SDS011;32412;51.478;5.694;2023-08-12T03:05:58;31.45;;;19.80;;
46675;SDS011;32412;51.478;5.694;2023-08-12T03:08:24;32.55;;;19.30;;
46675;SDS011;32412;51.478;5.694;2023-08-12T03:10:50;33.40;;;19.70;;
46675;SDS011;32412;51.478;5.694;2023-08-12T03:13:15;33.50;;;19.75;;
46675;SDS011;32412;51.478;5.694;2023-08-12T03:15:41;32.83;;;19.27;;
46675;SDS011;32412;51.478;5.694;2023-08-12T03:18:07;28.80;;;20.60;;
46675;SDS011;32412;51.478;5.694;2023-08-12T03:20:33;35.72;;;21.10;;
46675;SDS011;32412;51.478;5.694;2023-08-12T03:22:59;30.50;;;20.65;;
46675;SDS011;32412;51.478;5.694;2023-08-12T03:25:25;32.97;;;21.02;;
46675;SDS011;32412;51.478;5.694;2023-08-12T03:27:51;31.90;;;20.90;;
46675;SDS011;32412;51.478;5.694;2023-08-12T03:30:16;36.28;;;20.92;;
46675;SDS011;32412;51.478;5.694;2023-08-12T03:32:42;38.10;;;22.25;;
46675;SDS011;32412;51.478;5.694;2023-08-12T03:35:07;35.97;;;22.13;;
46675;SDS011;32412;51.478;5.694;2023-08-12T03:37:34;32.35;;;21.40;;
46675;SDS011;32412;51.478;5.694;2023-08-12T03:39:59;38.17;;;22.15;;
46675;SDS011;32412;51.478;5.694;2023-08-12T03:42:25;35.75;;;22.13;;
46675;SDS011;32412;51.478;5.694;2023-08-12T03:44:51;38.90;;;22.70;;
46675;SDS011;32412;51.478;5.694;2023-08-12T03:47:16;32.17;;;20.52;;
46675;SDS011;32412;51.478;5.694;2023-08-12T03:49:46;32.38;;;21.63;;
46675;SDS011;32412;51.478;5.694;2023-08-12T03:52:12;31.60;;;20.98;;
46675;SDS011;32412;51.478;5.694;2023-08-12T03:54:38;34.90;;;21.35;;
46675;SDS011;32412;51.478;5.694;2023-08-12T03:57:04;42.58;;;21.52;;
46675;SDS011;32412;51.478;5.694;2023-08-12T03:59:29;30.92;;;21.00;;
46675;SDS011;32412;51.478;5.694;2023-08-12T04:01:56;29.73;;;18.83;;
46675;SDS011;32412;51.478;5.694;2023-08-12T04:04:22;29.63;;;17.35;;
46675;SDS011;32412;51.478;5.694;2023-08-12T04:06:48;27.05;;;17.27;;
46675;SDS011;32412;51.478;5.694;2023-08-12T04:09:16;25.63;;;15.52;;
46675;SDS011;32412;51.478;5.694;2023-08-12T04:11:42;28.77;;;16.33;;
46675;SDS011;32412;51.478;5.694;2023-08-12T04:14:08;23.83;;;15.98;;
46675;SDS011;32412;51.478;5.694;2023-08-12T04:16:34;24.85;;;16.20;;
46675;SDS011;32412;51.478;5.694;2023-08-12T04:19:00;30.58;;;15.80;;
46675;SDS011;32412;51.478;5.694;2023-08-12T04:21:25;24.20;;;16.65;;
46675;SDS011;32412;51.478;5.694;2023-08-12T04:23:51;27.90;;;16.80;;
46675;SDS011;32412;51.478;5.694;2023-08-12T04:26:16;26.65;;;17.40;;
46675;SDS011;32412;51.478;5.694;2023-08-12T04:28:42;26.38;;;16.60;;
46675;SDS011;32412;51.478;5.694;2023-08-12T04:31:08;27.75;;;16.08;;
46675;SDS011;32412;51.478;5.694;2023-08-12T04:33:33;25.88;;;16.33;;
46675;SDS011;32412;51.478;5.694;2023-08-12T04:35:59;22.20;;;15.00;;
46675;SDS011;32412;51.478;5.694;2023-08-12T04:38:25;23.98;;;15.90;;
46675;SDS011;32412;51.478;5.694;2023-08-12T04:40:52;24.38;;;14.63;;
46675;SDS011;32412;51.478;5.694;2023-08-12T04:43:19;24.00;;;14.68;;
46675;SDS011;32412;51.478;5.694;2023-08-12T04:45:47;22.63;;;14.00;;
46675;SDS011;32412;51.478;5.694;2023-08-12T04:48:13;22.65;;;13.52;;
46675;SDS011;32412;51.478;5.694;2023-08-12T04:50:39;25.38;;;15.10;;
46675;SDS011;32412;51.478;5.694;2023-08-12T04:53:06;23.15;;;13.85;;
46675;SDS011;32412;51.478;5.694;2023-08-12T04:55:31;20.13;;;13.60;;
46675;SDS011;32412;51.478;5.694;2023-08-12T04:57:59;23.00;;;13.68;;
46675;SDS011;32412;51.478;5.694;2023-08-12T05:00:24;25.70;;;14.73;;
46675;SDS011;32412;51.478;5.694;2023-08-12T05:02:50;21.65;;;14.57;;
46675;SDS011;32412;51.478;5.694;2023-08-12T05:05:15;24.27;;;13.70;;
46675;SDS011;32412;51.478;5.694;2023-08-12T05:07:41;21.13;;;13.93;;
46675;SDS011;32412;51.478;5.694;2023-08-12T05:10:07;22.75;;;13.05;;
46675;SDS011;32412;51.478;5.694;2023-08-12T05:12:33;25.67;;;14.32;;
46675;SDS011;32412;51.478;5.694;2023-08-12T05:14:58;27.52;;;15.18;;
46675;SDS011;32412;51.478;5.694;2023-08-12T05:17:24;19.27;;;14.70;;
46675;SDS011;32412;51.478;5.694;2023-08-12T05:19:50;26.08;;;14.80;;
46675;SDS011;32412;51.478;5.694;2023-08-12T05:22:15;24.27;;;14.40;;
46675;SDS011;32412;51.478;5.694;2023-08-12T05:24:41;26.42;;;14.90;;
46675;SDS011;32412;51.478;5.694;2023-08-12T05:27:07;27.42;;;13.85;;
46675;SDS011;32412;51.478;5.694;2023-08-12T05:29:32;32.47;;;14.55;;
46675;SDS011;32412;51.478;5.694;2023-08-12T05:31:58;22.98;;;13.00;;
46675;SDS011;32412;51.478;5.694;2023-08-12T05:34:24;18.90;;;11.27;;
46675;SDS011;32412;51.478;5.694;2023-08-12T05:36:49;14.88;;;9.27;;
46675;SDS011;32412;51.478;5.694;2023-08-12T05:39:15;20.83;;;10.75;;
46675;SDS011;32412;51.478;5.694;2023-08-12T05:41:41;22.60;;;10.55;;
46675;SDS011;32412;51.478;5.694;2023-08-12T05:44:06;21.05;;;11.45;;
46675;SDS011;32412;51.478;5.694;2023-08-12T05:46:32;17.05;;;10.70;;
46675;SDS011;32412;51.478;5.694;2023-08-12T05:48:58;19.58;;;11.98;;
46675;SDS011;32412;51.478;5.694;2023-08-12T05:51:23;20.75;;;11.55;;
46675;SDS011;32412;51.478;5.694;2023-08-12T05:53:49;22.45;;;11.55;;
46675;SDS011;32412;51.478;5.694;2023-08-12T05:56:15;24.88;;;12.38;;
46675;SDS011;32412;51.478;5.694;2023-08-12T05:58:40;21.85;;;12.05;;
46675;SDS011;32412;51.478;5.694;2023-08-12T06:01:06;22.63;;;13.13;;
46675;SDS011;32412;51.478;5.694;2023-08-12T06:03:31;19.75;;;12.10;;
46675;SDS011;32412;51.478;5.694;2023-08-12T06:05:57;21.35;;;12.10;;
46675;SDS011;32412;51.478;5.694;2023-08-12T06:08:23;21.77;;;12.20;;
46675;SDS011;32412;51.478;5.694;2023-08-12T06:10:48;20.30;;;11.80;;
46675;SDS011;32412;51.478;5.694;2023-08-12T06:13:14;20.38;;;11.57;;
46675;SDS011;32412;51.478;5.694;2023-08-12T06:15:40;19.58;;;11.18;;
46675;SDS011;32412;51.478;5.694;2023-08-12T06:18:05;25.83;;;12.13;;
46675;SDS011;32412;51.478;5.694;2023-08-12T06:20:31;18.27;;;12.30;;
46675;SDS011;32412;51.478;5.694;2023-08-12T06:22:56;16.40;;;11.85;;
46675;SDS011;32412;51.478;5.694;2023-08-12T06:25:22;17.20;;;10.60;;
46675;SDS011;32412;51.478;5.694;2023-08-12T06:27:48;15.23;;;9.88;;
46675;SDS011;32412;51.478;5.694;2023-08-12T06:30:14;14.70;;;9.23;;
46675;SDS011;32412;51.478;5.694;2023-08-12T06:32:39;12.93;;;8.85;;
46675;SDS011;32412;51.478;5.694;2023-08-12T06:35:05;17.00;;;9.90;;
46675;SDS011;32412;51.478;5.694;2023-08-12T06:37:32;10.68;;;7.03;;
46675;SDS011;32412;51.478;5.694;2023-08-12T06:39:57;10.07;;;6.82;;
46675;SDS011;32412;51.478;5.694;2023-08-12T06:42:23;8.88;;;6.63;;
46675;SDS011;32412;51.478;5.694;2023-08-12T06:44:54;6.55;;;5.35;;
46675;SDS011;32412;51.478;5.694;2023-08-12T06:47:20;7.13;;;4.90;;
46675;SDS011;32412;51.478;5.694;2023-08-12T06:49:46;7.28;;;5.00;;
46675;SDS011;32412;51.478;5.694;2023-08-12T06:52:12;8.13;;;5.40;;
46675;SDS011;32412;51.478;5.694;2023-08-12T06:54:38;8.77;;;5.28;;
46675;SDS011;32412;51.478;5.694;2023-08-12T06:57:03;6.18;;;5.10;;
46675;SDS011;32412;51.478;5.694;2023-08-12T06:59:29;6.45;;;5.00;;
46675;SDS011;32412;51.478;5.694;2023-08-12T07:01:54;8.73;;;4.90;;
46675;SDS011;32412;51.478;5.694;2023-08-12T07:04:20;8.45;;;5.75;;
46675;SDS011;32412;51.478;5.694;2023-08-12T07:06:46;5.85;;;5.10;;
46675;SDS011;32412;51.478;5.694;2023-08-12T07:09:12;7.63;;;6.10;;
46675;SDS011;32412;51.478;5.694;2023-08-12T07:11:38;7.10;;;6.10;;
46675;SDS011;32412;51.478;5.694;2023-08-12T07:14:04;8.98;;;6.47;;
46675;SDS011;32412;51.478;5.694;2023-08-12T07:16:29;9.38;;;7.00;;
46675;SDS011;32412;51.478;5.694;2023-08-12T07:18:58;8.07;;;6.55;;
46675;SDS011;32412;51.478;5.694;2023-08-12T07:21:24;8.15;;;6.68;;
46675;SDS011;32412;51.478;5.694;2023-08-12T07:23:49;9.20;;;7.68;;
46675;SDS011;32412;51.478;5.694;2023-08-12T07:26:15;9.65;;;7.63;;
46675;SDS011;32412;51.478;5.694;2023-08-12T07:28:41;10.68;;;8.63;;
46675;SDS011;32412;51.478;5.694;2023-08-12T07:31:06;14.07;;;9.40;;
46675;SDS011;32412;51.478;5.694;2023-08-12T07:33:32;12.95;;;9.15;;
46675;SDS011;32412;51.478;5.694;2023-08-12T07:35:58;15.15;;;9.23;;
46675;SDS011;32412;51.478;5.694;2023-08-12T07:38:23;13.32;;;10.57;;
46675;SDS011;32412;51.478;5.694;2023-08-12T07:40:49;16.75;;;10.30;;
46675;SDS011;32412;51.478;5.694;2023-08-12T07:43:15;12.27;;;9.75;;
46675;SDS011;32412;51.478;5.694;2023-08-12T07:45:41;12.48;;;10.38;;
46675;SDS011;32412;51.478;5.694;2023-08-12T07:48:06;13.70;;;10.35;;
46675;SDS011;32412;51.478;5.694;2023-08-12T07:50:32;14.27;;;10.45;;
46675;SDS011;32412;51.478;5.694;2023-08-12T07:52:58;13.57;;;10.15;;
46675;SDS011;32412;51.478;5.694;2023-08-12T07:55:23;16.20;;;11.15;;
46675;SDS011;32412;51.478;5.694;2023-08-12T07:57:49;13.20;;;9.82;;
46675;SDS011;32412;51.478;5.694;2023-08-12T08:00:15;13.80;;;10.02;;
46675;SDS011;32412;51.478;5.694;2023-08-12T08:02:40;11.45;;;9.38;;
46675;SDS011;32412;51.478;5.694;2023-08-12T08:05:06;13.57;;;9.25;;
46675;SDS011;32412;51.478;5.694;2023-08-12T08:07:32;17.40;;;9.88;;
46675;SDS011;32412;51.478;5.694;2023-08-12T08:09:58;14.27;;;9.70;;
46675;SDS011;32412;51.478;5.694;2023-08-12T08:12:23;11.65;;;8.93;;
46675;SDS011;32412;51.478;5.694;2023-08-12T08:14:49;9.25;;;7.88;;
46675;SDS011;32412;51.478;5.694;2023-08-12T08:17:15;12.02;;;8.00;;
46675;SDS011;32412;51.478;5.694;2023-08-12T08:19:40;9.65;;;6.30;;
46675;SDS011;32412;51.478;5.694;2023-08-12T08:22:06;8.02;;;5.70;;
46675;SDS011;32412;51.478;5.694;2023-08-12T08:24:31;8.07;;;6.18;;
46675;SDS011;32412;51.478;5.694;2023-08-12T08:26:57;6.32;;;5.45;;
46675;SDS011;32412;51.478;5.694;2023-08-12T08:29:23;6.47;;;5.85;;
46675;SDS011;32412;51.478;5.694;2023-08-12T08:31:49;6.57;;;5.43;;
46675;SDS011;32412;51.478;5.694;2023-08-12T08:34:15;6.40;;;5.43;;
46675;SDS011;32412;51.478;5.694;2023-08-12T08:36:41;8.02;;;5.00;;
46675;SDS011;32412;51.478;5.694;2023-08-12T08:39:06;5.93;;;5.32;;
46675;SDS011;32412;51.478;5.694;2023-08-12T08:41:32;5.05;;;4.53;;
46675;SDS011;32412;51.478;5.694;2023-08-12T08:44:03;7.63;;;6.00;;
46675;SDS011;32412;51.478;5.694;2023-08-12T08:46:32;7.68;;;5.70;;
46675;SDS011;32412;51.478;5.694;2023-08-12T08:48:58;9.93;;;5.65;;
46675;SDS011;32412;51.478;5.694;2023-08-12T08:51:25;6.00;;;4.43;;
46675;SDS011;32412;51.478;5.694;2023-08-12T08:53:54;4.50;;;3.88;;
46675;SDS011;32412;51.478;5.694;2023-08-12T08:56:22;4.13;;;3.83;;
46675;SDS011;32412;51.478;5.694;2023-08-12T08:58:49;4.97;;;4.57;;
46675;SDS011;32412;51.478;5.694;2023-08-12T09:01:15;5.40;;;4.82;;
46675;SDS011;32412;51.478;5.694;2023-08-12T09:03:45;7.32;;;5.47;;
46675;SDS011;32412;51.478;5.694;2023-08-12T09:06:12;5.65;;;5.15;;
46675;SDS011;32412;51.478;5.694;2023-08-12T09:08:38;5.32;;;4.88;;
46675;SDS011;32412;51.478;5.694;2023-08-12T09:11:09;5.32;;;4.82;;
46675;SDS011;32412;51.478;5.694;2023-08-12T09:13:36;5.20;;;4.75;;
46675;SDS011;32412;51.478;5.694;2023-08-12T09:16:01;5.00;;;4.57;;
46675;SDS011;32412;51.478;5.694;2023-08-12T09:18:29;5.35;;;4.95;;
46675;SDS011;32412;51.478;5.694;2023-08-12T09:20:54;5.80;;;5.30;;
46675;SDS011;32412;51.478;5.694;2023-08-12T09:23:20;5.75;;;5.32;;
46675;SDS011;32412;51.478;5.694;2023-08-12T09:25:46;6.63;;;6.05;;
46675;SDS011;32412;51.478;5.694;2023-08-12T09:28:11;7.15;;;6.55;;
46675;SDS011;32412;51.478;5.694;2023-08-12T09:30:38;7.53;;;6.90;;
46675;SDS011;32412;51.478;5.694;2023-08-12T09:33:05;7.60;;;6.88;;
46675;SDS011;32412;51.478;5.694;2023-08-12T09:35:33;11.20;;;8.35;;
46675;SDS011;32412;51.478;5.694;2023-08-12T09:38:03;8.27;;;7.57;;
46675;SDS011;32412;51.478;5.694;2023-08-12T09:40:34;8.05;;;7.35;;
46675;SDS011;32412;51.478;5.694;2023-08-12T09:43:00;7.55;;;6.95;;
46675;SDS011;32412;51.478;5.694;2023-08-12T09:45:26;7.60;;;7.00;;
46675;SDS011;32412;51.478;5.694;2023-08-12T09:47:52;8.15;;;7.45;;
46675;SDS011;32412;51.478;5.694;2023-08-12T09:50:23;8.45;;;7.63;;
46675;SDS011;32412;51.478;5.694;2023-08-12T09:52:50;7.00;;;6.43;;
46675;SDS011;32412;51.478;5.694;2023-08-12T09:55:17;8.52;;;7.65;;
46675;SDS011;32412;51.478;5.694;2023-08-12T09:57:43;6.05;;;5.55;;
46675;SDS011;32412;51.478;5.694;2023-08-12T10:00:12;6.10;;;5.00;;
46675;SDS011;32412;51.478;5.694;2023-08-12T10:02:42;4.03;;;3.72;;
46675;SDS011;32412;51.478;5.694;2023-08-12T10:05:10;3.90;;;3.63;;
46675;SDS011;32412;51.478;5.694;2023-08-12T10:07:38;3.30;;;3.10;;
46675;SDS011;32412;51.478;5.694;2023-08-12T10:10:05;2.65;;;2.45;;
46675;SDS011;32412;51.478;5.694;2023-08-12T10:12:32;2.47;;;2.38;;
46675;SDS011;32412;51.478;5.694;2023-08-12T10:14:59;2.70;;;2.50;;
46675;SDS011;32412;51.478;5.694;2023-08-12T10:17:25;2.95;;;2.75;;
46675;SDS011;32412;51.478;5.694;2023-08-12T10:19:55;3.58;;;2.55;;
46675;SDS011;32412;51.478;5.694;2023-08-12T10:22:23;3.42;;;2.78;;
46675;SDS011;32412;51.478;5.694;2023-08-12T10:24:50;3.80;;;3.25;;
46675;SDS011;32412;51.478;5.694;2023-08-12T10:27:16;3.47;;;2.90;;
46675;SDS011;32412;51.478;5.694;2023-08-12T10:29:43;3.75;;;3.05;;
46675;SDS011;32412;51.478;5.694;2023-08-12T10:32:11;3.35;;;2.92;;
46675;SDS011;32412;51.478;5.694;2023-08-12T10:34:38;3.22;;;2.78;;
46675;SDS011;32412;51.478;5.694;2023-08-12T10:37:03;3.70;;;3.30;;
46675;SDS011;32412;51.478;5.694;2023-08-12T10:39:32;3.42;;;3.20;;
46675;SDS011;32412;51.478;5.694;2023-08-12T10:41:59;4.15;;;3.17;;
46675;SDS011;32412;51.478;5.694;2023-08-12T10:44:48;5.15;;;2.92;;
46675;SDS011;32412;51.478;5.694;2023-08-12T10:47:16;3.40;;;2.83;;
46675;SDS011;32412;51.478;5.694;2023-08-12T10:49:42;2.67;;;2.47;;
46675;SDS011;32412;51.478;5.694;2023-08-12T10:57:50;2.97;;;2.72;;
46675;SDS011;32412;51.478;5.694;2023-08-12T11:00:22;2.13;;;1.92;;
46675;SDS011;32412;51.478;5.694;2023-08-12T11:02:56;3.20;;;2.20;;
46675;SDS011;32412;51.478;5.694;2023-08-12T11:05:22;1.80;;;1.70;;
46675;SDS011;32412;51.478;5.694;2023-08-12T11:08:01;2.03;;;1.58;;
46675;SDS011;32412;51.478;5.694;2023-08-12T11:10:32;3.30;;;2.20;;
46675;SDS011;32412;51.478;5.694;2023-08-12T11:12:59;1.80;;;1.70;;
46675;SDS011;32412;51.478;5.694;2023-08-12T11:18:12;2.78;;;1.70;;
46675;SDS011;32412;51.478;5.694;2023-08-12T11:20:39;3.13;;;1.20;;
46675;SDS011;32412;51.478;5.694;2023-08-12T11:23:06;2.15;;;1.10;;
46675;SDS011;32412;51.478;5.694;2023-08-12T11:25:33;1.88;;;1.30;;
46675;SDS011;32412;51.478;5.694;2023-08-12T11:27:59;4.00;;;1.40;;
46675;SDS011;32412;51.478;5.694;2023-08-12T11:30:26;2.58;;;1.10;;
46675;SDS011;32412;51.478;5.694;2023-08-12T11:32:53;2.25;;;1.20;;
46675;SDS011;32412;51.478;5.694;2023-08-12T11:35:20;3.40;;;1.20;;
46675;SDS011;32412;51.478;5.694;2023-08-12T11:37:48;7.93;;;1.60;;
46675;SDS011;32412;51.478;5.694;2023-08-12T11:40:16;4.93;;;1.58;;
46675;SDS011;32412;51.478;5.694;2023-08-12T11:42:43;2.13;;;1.30;;
46675;SDS011;32412;51.478;5.694;2023-08-12T11:45:10;2.45;;;1.10;;
46675;SDS011;32412;51.478;5.694;2023-08-12T11:47:37;4.03;;;1.45;;
46675;SDS011;32412;51.478;5.694;2023-08-12T11:50:08;4.82;;;1.40;;
46675;SDS011;32412;51.478;5.694;2023-08-12T11:52:35;5.82;;;1.20;;
46675;SDS011;32412;51.478;5.694;2023-08-12T11:55:02;2.50;;;1.10;;
46675;SDS011;32412;51.478;5.694;2023-08-12T11:57:28;2.67;;;1.10;;
46675;SDS011;32412;51.478;5.694;2023-08-12T12:00:03;1.90;;;1.00;;
46675;SDS011;32412;51.478;5.694;2023-08-12T12:02:38;4.82;;;1.20;;
46675;SDS011;32412;51.478;5.694;2023-08-12T12:05:11;2.83;;;1.30;;
46675;SDS011;32412;51.478;5.694;2023-08-12T12:07:38;4.55;;;1.33;;
46675;SDS011;32412;51.478;5.694;2023-08-12T12:10:04;4.45;;;1.17;;
46675;SDS011;32412;51.478;5.694;2023-08-12T12:12:32;2.83;;;0.95;;
46675;SDS011;32412;51.478;5.694;2023-08-12T12:15:00;1.52;;;0.88;;
46675;SDS011;32412;51.478;5.694;2023-08-12T12:17:26;3.03;;;1.45;;
46675;SDS011;32412;51.478;5.694;2023-08-12T12:19:54;6.45;;;1.40;;
46675;SDS011;32412;51.478;5.694;2023-08-12T12:22:25;6.80;;;1.50;;
46675;SDS011;32412;51.478;5.694;2023-08-12T12:24:57;4.63;;;1.33;;
46675;SDS011;32412;51.478;5.694;2023-08-12T12:27:25;5.32;;;1.30;;
46675;SDS011;32412;51.478;5.694;2023-08-12T12:29:51;3.88;;;1.50;;
46675;SDS011;32412;51.478;5.694;2023-08-12T12:32:18;1.92;;;1.10;;
46675;SDS011;32412;51.478;5.694;2023-08-12T12:34:45;5.32;;;1.55;;
46675;SDS011;32412;51.478;5.694;2023-08-12T12:37:11;4.97;;;1.60;;
46675;SDS011;32412;51.478;5.694;2023-08-12T12:39:38;3.72;;;1.30;;
46675;SDS011;32412;51.478;5.694;2023-08-12T12:42:04;8.40;;;1.67;;
46675;SDS011;32412;51.478;5.694;2023-08-12T12:44:30;4.43;;;1.55;;
46675;SDS011;32412;51.478;5.694;2023-08-12T12:46:56;4.45;;;1.60;;
46675;SDS011;32412;51.478;5.694;2023-08-12T12:49:21;3.30;;;1.40;;
46675;SDS011;32412;51.478;5.694;2023-08-12T12:51:47;4.95;;;1.50;;
46675;SDS011;32412;51.478;5.694;2023-08-12T12:54:14;6.38;;;2.15;;
46675;SDS011;32412;51.478;5.694;2023-08-12T12:56:39;6.15;;;1.60;;
46675;SDS011;32412;51.478;5.694;2023-08-12T12:59:05;5.60;;;1.73;;
46675;SDS011;32412;51.478;5.694;2023-08-12T13:01:30;3.85;;;1.45;;
46675;SDS011;32412;51.478;5.694;2023-08-12T13:03:56;5.07;;;1.52;;
46675;SDS011;32412;51.478;5.694;2023-08-12T13:06:22;6.10;;;1.70;;
46675;SDS011;32412;51.478;5.694;2023-08-12T13:08:48;5.13;;;1.67;;
46675;SDS011;32412;51.478;5.694;2023-08-12T13:11:14;4.35;;;1.75;;
46675;SDS011;32412;51.478;5.694;2023-08-12T13:13:40;6.60;;;2.00;;
46675;SDS011;32412;51.478;5.694;2023-08-12T13:16:06;4.93;;;2.20;;
46675;SDS011;32412;51.478;5.694;2023-08-12T13:18:33;7.30;;;1.88;;
46675;SDS011;32412;51.478;5.694;2023-08-12T13:20:59;6.30;;;2.33;;
46675;SDS011;32412;51.478;5.694;2023-08-12T13:23:24;5.40;;;2.35;;
46675;SDS011;32412;51.478;5.694;2023-08-12T13:25:50;9.00;;;2.17;;
46675;SDS011;32412;51.478;5.694;2023-08-12T13:28:16;4.18;;;1.98;;
46675;SDS011;32412;51.478;5.694;2023-08-12T13:30:42;6.20;;;2.13;;
46675;SDS011;32412;51.478;5.694;2023-08-12T13:33:08;5.53;;;2.22;;
46675;SDS011;32412;51.478;5.694;2023-08-12T13:35:34;11.85;;;2.65;;
46675;SDS011;32412;51.478;5.694;2023-08-12T13:37:59;4.75;;;1.95;;
46675;SDS011;32412;51.478;5.694;2023-08-12T13:40:25;2.85;;;1.52;;
46675;SDS011;32412;51.478;5.694;2023-08-12T13:42:51;5.70;;;2.17;;
46675;SDS011;32412;51.478;5.694;2023-08-12T13:45:17;4.38;;;2.20;;
46675;SDS011;32412;51.478;5.694;2023-08-12T13:47:42;7.35;;;2.17;;
46675;SDS011;32412;51.478;5.694;2023-08-12T13:50:08;6.18;;;2.55;;
46675;SDS011;32412;51.478;5.694;2023-08-12T13:52:34;5.82;;;2.00;;
46675;SDS011;32412;51.478;5.694;2023-08-12T13:55:00;8.63;;;2.28;;
46675;SDS011;32412;51.478;5.694;2023-08-12T13:57:27;7.55;;;2.72;;
46675;SDS011;32412;51.478;5.694;2023-08-12T13:59:52;5.30;;;1.90;;
46675;SDS011;32412;51.478;5.694;2023-08-12T14:02:18;4.45;;;2.22;;
46675;SDS011;32412;51.478;5.694;2023-08-12T14:04:44;7.88;;;2.00;;
46675;SDS011;32412;51.478;5.694;2023-08-12T14:07:09;4.72;;;1.75;;
46675;SDS011;32412;51.478;5.694;2023-08-12T14:09:35;6.78;;;2.40;;
46675;SDS011;32412;51.478;5.694;2023-08-12T14:12:01;7.85;;;2.20;;
46675;SDS011;32412;51.478;5.694;2023-08-12T14:14:26;4.32;;;2.20;;
46675;SDS011;32412;51.478;5.694;2023-08-12T14:16:57;4.80;;;2.22;;
46675;SDS011;32412;51.478;5.694;2023-08-12T14:19:23;6.32;;;2.55;;
46675;SDS011;32412;51.478;5.694;2023-08-12T14:21:49;5.30;;;2.40;;
46675;SDS011;32412;51.478;5.694;2023-08-12T14:24:14;3.20;;;2.35;;
46675;SDS011;32412;51.478;5.694;2023-08-12T14:26:40;5.18;;;2.10;;
46675;SDS011;32412;51.478;5.694;2023-08-12T14:29:06;5.10;;;3.17;;
46675;SDS011;32412;51.478;5.694;2023-08-12T14:31:31;9.73;;;3.22;;
46675;SDS011;32412;51.478;5.694;2023-08-12T14:33:58;8.82;;;3.10;;
46675;SDS011;32412;51.478;5.694;2023-08-12T14:36:23;6.13;;;2.95;;
46675;SDS011;32412;51.478;5.694;2023-08-12T14:38:52;4.88;;;2.95;;
46675;SDS011;32412;51.478;5.694;2023-08-12T14:41:18;9.95;;;3.13;;
46675;SDS011;32412;51.478;5.694;2023-08-12T14:43:44;8.05;;;3.88;;